sensor_id;sensor_type;location;lat;lon;timestamp;P1;durP1;ratioP1;P2;durP2;ratioP2
65375;SDS011;51976;47.332;9.404;2022-09-16T00:02:24;0.68;;;0.22;;
65375;SDS011;51976;47.332;9.404;2022-09-16T00:04:50;0.40;;;0.30;;
65375;SDS011;51976;47.332;9.404;2022-09-16T00:07:15;0.70;;;0.30;;
65375;SDS011;51976;47.332;9.404;2022-09-16T00:09:40;0.30;;;0.20;;
65375;SDS011;51976;47.332;9.404;2022-09-16T00:12:06;1.05;;;0.40;;
65375;SDS011;51976;47.332;9.404;2022-09-16T00:14:32;0.73;;;0.28;;
65375;SDS011;51976;47.332;9.404;2022-09-16T00:16:57;0.47;;;0.30;;
65375;SDS011;51976;47.332;9.404;2022-09-16T00:19:23;0.70;;;0.50;;
65375;SDS011;51976;47.332;9.404;2022-09-16T00:21:48;0.60;;;0.25;;
65375;SDS011;51976;47.332;9.404;2022-09-16T00:24:14;0.35;;;0.20;;
65375;SDS011;51976;47.332;9.404;2022-09-16T00:26:41;0.45;;;0.20;;
65375;SDS011;51976;47.332;9.404;2022-09-16T00:29:07;0.40;;;0.20;;
65375;SDS011;51976;47.332;9.404;2022-09-16T00:31:33;0.68;;;0.40;;
65375;SDS011;51976;47.332;9.404;2022-09-16T00:33:59;0.93;;;0.40;;
65375;SDS011;51976;47.332;9.404;2022-09-16T00:36:24;0.40;;;0.20;;
65375;SDS011;51976;47.332;9.404;2022-09-16T00:38:50;1.58;;;0.25;;
65375;SDS011;51976;47.332;9.404;2022-09-16T00:41:19;0.43;;;0.30;;
65375;SDS011;51976;47.332;9.404;2022-09-16T00:43:52;0.20;;;0.10;;
65375;SDS011;51976;47.332;9.404;2022-09-16T00:46:22;0.50;;;0.32;;
65375;SDS011;51976;47.332;9.404;2022-09-16T00:48:52;0.32;;;0.20;;
65375;SDS011;51976;47.332;9.404;2022-09-16T00:51:18;0.52;;;0.20;;
65375;SDS011;51976;47.332;9.404;2022-09-16T00:53:49;1.00;;;0.43;;
65375;SDS011;51976;47.332;9.404;2022-09-16T00:56:21;0.57;;;0.30;;
65375;SDS011;51976;47.332;9.404;2022-09-16T00:58:49;0.30;;;0.20;;
65375;SDS011;51976;47.332;9.404;2022-09-16T01:01:26;0.55;;;0.38;;
65375;SDS011;51976;47.332;9.404;2022-09-16T01:03:53;0.25;;;0.10;;
65375;SDS011;51976;47.332;9.404;2022-09-16T01:06:20;0.57;;;0.30;;
65375;SDS011;51976;47.332;9.404;2022-09-16T01:08:49;0.47;;;0.20;;
65375;SDS011;51976;47.332;9.404;2022-09-16T01:11:15;0.40;;;0.20;;
65375;SDS011;51976;47.332;9.404;2022-09-16T01:13:40;0.40;;;0.20;;
65375;SDS011;51976;47.332;9.404;2022-09-16T01:16:21;0.50;;;0.28;;
65375;SDS011;51976;47.332;9.404;2022-09-16T01:19:11;0.60;;;0.20;;
65375;SDS011;51976;47.332;9.404;2022-09-16T01:21:57;0.75;;;0.30;;
65375;SDS011;51976;47.332;9.404;2022-09-16T01:24:50;0.57;;;0.30;;
65375;SDS011;51976;47.332;9.404;2022-09-16T01:27:38;0.68;;;0.35;;
65375;SDS011;51976;47.332;9.404;2022-09-16T01:30:29;0.90;;;0.50;;
65375;SDS011;51976;47.332;9.404;2022-09-16T01:36:02;0.50;;;0.30;;
65375;SDS011;51976;47.332;9.404;2022-09-16T01:38:57;0.52;;;0.30;;
65375;SDS011;51976;47.332;9.404;2022-09-16T01:41:52;0.20;;;0.20;;
65375;SDS011;51976;47.332;9.404;2022-09-16T01:44:28;0.40;;;0.20;;
65375;SDS011;51976;47.332;9.404;2022-09-16T01:47:13;0.30;;;0.20;;
65375;SDS011;51976;47.332;9.404;2022-09-16T01:49:56;0.50;;;0.28;;
65375;SDS011;51976;47.332;9.404;2022-09-16T01:52:31;0.65;;;0.40;;
65375;SDS011;51976;47.332;9.404;2022-09-16T01:55:09;0.52;;;0.28;;
65375;SDS011;51976;47.332;9.404;2022-09-16T01:57:50;0.47;;;0.30;;
65375;SDS011;51976;47.332;9.404;2022-09-16T02:00:21;0.38;;;0.20;;
65375;SDS011;51976;47.332;9.404;2022-09-16T02:02:48;1.02;;;0.30;;
65375;SDS011;51976;47.332;9.404;2022-09-16T02:05:32;0.45;;;0.20;;
65375;SDS011;51976;47.332;9.404;2022-09-16T02:08:05;1.40;;;0.30;;
65375;SDS011;51976;47.332;9.404;2022-09-16T02:10:39;0.73;;;0.40;;
65375;SDS011;51976;47.332;9.404;2022-09-16T02:13:13;0.30;;;0.22;;
65375;SDS011;51976;47.332;9.404;2022-09-16T02:15:52;0.40;;;0.20;;
65375;SDS011;51976;47.332;9.404;2022-09-16T02:18:21;0.55;;;0.30;;
65375;SDS011;51976;47.332;9.404;2022-09-16T02:20:51;0.40;;;0.30;;
65375;SDS011;51976;47.332;9.404;2022-09-16T02:23:28;0.50;;;0.30;;
65375;SDS011;51976;47.332;9.404;2022-09-16T02:25:58;0.35;;;0.20;;
65375;SDS011;51976;47.332;9.404;2022-09-16T02:28:26;0.57;;;0.25;;
65375;SDS011;51976;47.332;9.404;2022-09-16T02:30:57;0.35;;;0.20;;
65375;SDS011;51976;47.332;9.404;2022-09-16T02:33:30;0.28;;;0.20;;
65375;SDS011;51976;47.332;9.404;2022-09-16T02:35:58;0.17;;;0.15;;
65375;SDS011;51976;47.332;9.404;2022-09-16T02:38:29;0.65;;;0.25;;
65375;SDS011;51976;47.332;9.404;2022-09-16T02:41:02;0.60;;;0.30;;
65375;SDS011;51976;47.332;9.404;2022-09-16T02:43:28;0.50;;;0.20;;
65375;SDS011;51976;47.332;9.404;2022-09-16T02:51:56;1.10;;;0.40;;
65375;SDS011;51976;47.332;9.404;2022-09-16T02:54:40;0.60;;;0.30;;
65375;SDS011;51976;47.332;9.404;2022-09-16T02:57:15;0.50;;;0.30;;
65375;SDS011;51976;47.332;9.404;2022-09-16T02:59:41;0.40;;;0.20;;
65375;SDS011;51976;47.332;9.404;2022-09-16T03:02:07;0.55;;;0.25;;
65375;SDS011;51976;47.332;9.404;2022-09-16T03:04:33;0.22;;;0.10;;
65375;SDS011;51976;47.332;9.404;2022-09-16T03:06:59;0.40;;;0.20;;
65375;SDS011;51976;47.332;9.404;2022-09-16T03:09:26;0.30;;;0.20;;
65375;SDS011;51976;47.332;9.404;2022-09-16T03:12:04;0.82;;;0.52;;
65375;SDS011;51976;47.332;9.404;2022-09-16T03:17:51;0.40;;;0.25;;
65375;SDS011;51976;47.332;9.404;2022-09-16T03:20:42;1.25;;;0.30;;
65375;SDS011;51976;47.332;9.404;2022-09-16T03:26:24;0.53;;;0.30;;
65375;SDS011;51976;47.332;9.404;2022-09-16T03:29:06;0.30;;;0.20;;
65375;SDS011;51976;47.332;9.404;2022-09-16T03:32:01;0.30;;;0.20;;
65375;SDS011;51976;47.332;9.404;2022-09-16T03:34:45;0.47;;;0.28;;
65375;SDS011;51976;47.332;9.404;2022-09-16T03:37:17;0.50;;;0.38;;
65375;SDS011;51976;47.332;9.404;2022-09-16T03:39:51;0.55;;;0.20;;
65375;SDS011;51976;47.332;9.404;2022-09-16T03:42:19;0.32;;;0.20;;
65375;SDS011;51976;47.332;9.404;2022-09-16T03:44:45;0.55;;;0.20;;
65375;SDS011;51976;47.332;9.404;2022-09-16T03:47:11;0.20;;;0.15;;
65375;SDS011;51976;47.332;9.404;2022-09-16T03:49:36;0.73;;;0.30;;
65375;SDS011;51976;47.332;9.404;2022-09-16T03:52:03;0.63;;;0.30;;
65375;SDS011;51976;47.332;9.404;2022-09-16T03:54:29;0.55;;;0.30;;
65375;SDS011;51976;47.332;9.404;2022-09-16T03:56:55;0.38;;;0.20;;
65375;SDS011;51976;47.332;9.404;2022-09-16T03:59:21;0.73;;;0.38;;
65375;SDS011;51976;47.332;9.404;2022-09-16T04:01:47;0.68;;;0.30;;
65375;SDS011;51976;47.332;9.404;2022-09-16T04:04:12;0.95;;;0.30;;
65375;SDS011;51976;47.332;9.404;2022-09-16T04:06:38;0.25;;;0.15;;
65375;SDS011;51976;47.332;9.404;2022-09-16T04:09:04;0.50;;;0.22;;
65375;SDS011;51976;47.332;9.404;2022-09-16T04:11:31;0.40;;;0.30;;
65375;SDS011;51976;47.332;9.404;2022-09-16T04:13:57;0.52;;;0.40;;
65375;SDS011;51976;47.332;9.404;2022-09-16T04:16:23;1.10;;;0.30;;
65375;SDS011;51976;47.332;9.404;2022-09-16T04:18:49;0.63;;;0.40;;
65375;SDS011;51976;47.332;9.404;2022-09-16T04:21:15;1.20;;;0.50;;
65375;SDS011;51976;47.332;9.404;2022-09-16T04:23:40;0.20;;;0.20;;
65375;SDS011;51976;47.332;9.404;2022-09-16T04:26:06;0.45;;;0.20;;
65375;SDS011;51976;47.332;9.404;2022-09-16T04:28:32;0.40;;;0.30;;
65375;SDS011;51976;47.332;9.404;2022-09-16T04:30:59;0.30;;;0.20;;
65375;SDS011;51976;47.332;9.404;2022-09-16T04:33:29;0.52;;;0.30;;
65375;SDS011;51976;47.332;9.404;2022-09-16T04:36:03;0.50;;;0.20;;
65375;SDS011;51976;47.332;9.404;2022-09-16T04:38:30;0.57;;;0.30;;
65375;SDS011;51976;47.332;9.404;2022-09-16T04:41:02;0.30;;;0.25;;
65375;SDS011;51976;47.332;9.404;2022-09-16T04:43:30;0.50;;;0.35;;
65375;SDS011;51976;47.332;9.404;2022-09-16T04:45:55;0.40;;;0.30;;
65375;SDS011;51976;47.332;9.404;2022-09-16T04:48:21;0.60;;;0.40;;
65375;SDS011;51976;47.332;9.404;2022-09-16T04:50:48;0.40;;;0.30;;
65375;SDS011;51976;47.332;9.404;2022-09-16T04:53:13;0.60;;;0.28;;
65375;SDS011;51976;47.332;9.404;2022-09-16T04:55:38;0.57;;;0.35;;
65375;SDS011;51976;47.332;9.404;2022-09-16T04:58:04;0.40;;;0.30;;
65375;SDS011;51976;47.332;9.404;2022-09-16T05:00:29;0.40;;;0.20;;
65375;SDS011;51976;47.332;9.404;2022-09-16T05:02:55;0.40;;;0.28;;
65375;SDS011;51976;47.332;9.404;2022-09-16T05:05:20;0.38;;;0.20;;
65375;SDS011;51976;47.332;9.404;2022-09-16T05:07:45;0.40;;;0.20;;
65375;SDS011;51976;47.332;9.404;2022-09-16T05:10:11;0.88;;;0.30;;
65375;SDS011;51976;47.332;9.404;2022-09-16T05:12:36;0.50;;;0.40;;
65375;SDS011;51976;47.332;9.404;2022-09-16T05:15:02;0.40;;;0.30;;
65375;SDS011;51976;47.332;9.404;2022-09-16T05:17:28;0.45;;;0.20;;
65375;SDS011;51976;47.332;9.404;2022-09-16T05:19:55;0.43;;;0.25;;
65375;SDS011;51976;47.332;9.404;2022-09-16T05:22:20;0.43;;;0.30;;
65375;SDS011;51976;47.332;9.404;2022-09-16T05:24:46;0.40;;;0.30;;
65375;SDS011;51976;47.332;9.404;2022-09-16T05:27:11;0.63;;;0.40;;
65375;SDS011;51976;47.332;9.404;2022-09-16T05:29:37;0.82;;;0.50;;
65375;SDS011;51976;47.332;9.404;2022-09-16T05:32:02;0.65;;;0.32;;
65375;SDS011;51976;47.332;9.404;2022-09-16T05:34:28;0.60;;;0.43;;
65375;SDS011;51976;47.332;9.404;2022-09-16T05:36:54;0.75;;;0.25;;
65375;SDS011;51976;47.332;9.404;2022-09-16T05:39:20;0.32;;;0.20;;
65375;SDS011;51976;47.332;9.404;2022-09-16T05:41:46;0.50;;;0.30;;
65375;SDS011;51976;47.332;9.404;2022-09-16T05:44:12;0.60;;;0.40;;
65375;SDS011;51976;47.332;9.404;2022-09-16T05:46:38;0.30;;;0.20;;
65375;SDS011;51976;47.332;9.404;2022-09-16T05:49:07;1.05;;;0.40;;
65375;SDS011;51976;47.332;9.404;2022-09-16T05:51:35;0.90;;;0.30;;
65375;SDS011;51976;47.332;9.404;2022-09-16T05:54:02;1.38;;;0.30;;
65375;SDS011;51976;47.332;9.404;2022-09-16T05:56:28;0.50;;;0.30;;
65375;SDS011;51976;47.332;9.404;2022-09-16T05:58:54;0.80;;;0.40;;
65375;SDS011;51976;47.332;9.404;2022-09-16T06:01:22;0.93;;;0.47;;
65375;SDS011;51976;47.332;9.404;2022-09-16T06:03:50;0.70;;;0.30;;
65375;SDS011;51976;47.332;9.404;2022-09-16T06:06:26;0.68;;;0.45;;
65375;SDS011;51976;47.332;9.404;2022-09-16T06:08:56;0.80;;;0.30;;
65375;SDS011;51976;47.332;9.404;2022-09-16T06:11:23;0.65;;;0.30;;
65375;SDS011;51976;47.332;9.404;2022-09-16T06:13:53;0.75;;;0.20;;
65375;SDS011;51976;47.332;9.404;2022-09-16T06:16:20;0.68;;;0.38;;
65375;SDS011;51976;47.332;9.404;2022-09-16T06:18:46;1.10;;;0.38;;
65375;SDS011;51976;47.332;9.404;2022-09-16T06:21:12;0.50;;;0.30;;
65375;SDS011;51976;47.332;9.404;2022-09-16T06:23:37;0.57;;;0.40;;
65375;SDS011;51976;47.332;9.404;2022-09-16T06:26:05;0.80;;;0.30;;
65375;SDS011;51976;47.332;9.404;2022-09-16T06:28:33;0.95;;;0.40;;
65375;SDS011;51976;47.332;9.404;2022-09-16T06:31:00;2.20;;;0.32;;
65375;SDS011;51976;47.332;9.404;2022-09-16T06:33:30;1.02;;;0.40;;
65375;SDS011;51976;47.332;9.404;2022-09-16T06:35:55;0.80;;;0.30;;
65375;SDS011;51976;47.332;9.404;2022-09-16T06:38:22;1.52;;;0.50;;
65375;SDS011;51976;47.332;9.404;2022-09-16T06:40:48;1.63;;;0.35;;
65375;SDS011;51976;47.332;9.404;2022-09-16T06:43:14;0.57;;;0.30;;
65375;SDS011;51976;47.332;9.404;2022-09-16T06:45:40;2.78;;;0.30;;
65375;SDS011;51976;47.332;9.404;2022-09-16T06:48:05;0.70;;;0.40;;
65375;SDS011;51976;47.332;9.404;2022-09-16T06:50:30;0.90;;;0.30;;
65375;SDS011;51976;47.332;9.404;2022-09-16T06:52:56;0.80;;;0.40;;
65375;SDS011;51976;47.332;9.404;2022-09-16T06:55:22;0.57;;;0.30;;
65375;SDS011;51976;47.332;9.404;2022-09-16T06:57:47;1.15;;;0.40;;
65375;SDS011;51976;47.332;9.404;2022-09-16T07:00:12;0.90;;;0.47;;
65375;SDS011;51976;47.332;9.404;2022-09-16T07:02:38;0.60;;;0.40;;
65375;SDS011;51976;47.332;9.404;2022-09-16T07:05:03;0.47;;;0.30;;
65375;SDS011;51976;47.332;9.404;2022-09-16T07:07:29;0.90;;;0.40;;
65375;SDS011;51976;47.332;9.404;2022-09-16T07:09:56;1.08;;;0.73;;
65375;SDS011;51976;47.332;9.404;2022-09-16T07:12:22;1.27;;;0.63;;
65375;SDS011;51976;47.332;9.404;2022-09-16T07:14:48;2.42;;;0.93;;
65375;SDS011;51976;47.332;9.404;2022-09-16T07:17:13;0.63;;;0.30;;
65375;SDS011;51976;47.332;9.404;2022-09-16T07:19:38;0.88;;;0.40;;
65375;SDS011;51976;47.332;9.404;2022-09-16T07:22:06;0.85;;;0.50;;
65375;SDS011;51976;47.332;9.404;2022-09-16T07:24:31;0.55;;;0.40;;
65375;SDS011;51976;47.332;9.404;2022-09-16T07:26:57;0.88;;;0.40;;
65375;SDS011;51976;47.332;9.404;2022-09-16T07:29:22;2.08;;;0.47;;
65375;SDS011;51976;47.332;9.404;2022-09-16T07:31:48;0.68;;;0.45;;
65375;SDS011;51976;47.332;9.404;2022-09-16T07:34:13;0.70;;;0.40;;
65375;SDS011;51976;47.332;9.404;2022-09-16T07:36:40;0.47;;;0.38;;
65375;SDS011;51976;47.332;9.404;2022-09-16T07:39:10;0.60;;;0.30;;
65375;SDS011;51976;47.332;9.404;2022-09-16T07:41:38;0.80;;;0.50;;
65375;SDS011;51976;47.332;9.404;2022-09-16T07:44:05;0.73;;;0.40;;
65375;SDS011;51976;47.332;9.404;2022-09-16T07:46:32;0.93;;;0.32;;
65375;SDS011;51976;47.332;9.404;2022-09-16T07:48:59;0.43;;;0.35;;
65375;SDS011;51976;47.332;9.404;2022-09-16T07:51:27;0.95;;;0.50;;
65375;SDS011;51976;47.332;9.404;2022-09-16T07:53:53;0.57;;;0.35;;
65375;SDS011;51976;47.332;9.404;2022-09-16T07:56:21;0.52;;;0.35;;
65375;SDS011;51976;47.332;9.404;2022-09-16T07:58:49;0.52;;;0.30;;
65375;SDS011;51976;47.332;9.404;2022-09-16T08:01:15;0.60;;;0.40;;
65375;SDS011;51976;47.332;9.404;2022-09-16T08:03:42;1.13;;;0.40;;
65375;SDS011;51976;47.332;9.404;2022-09-16T08:06:10;1.77;;;0.40;;
65375;SDS011;51976;47.332;9.404;2022-09-16T08:08:43;0.85;;;0.50;;
65375;SDS011;51976;47.332;9.404;2022-09-16T08:11:09;0.52;;;0.25;;
65375;SDS011;51976;47.332;9.404;2022-09-16T08:13:36;1.45;;;0.40;;
65375;SDS011;51976;47.332;9.404;2022-09-16T08:16:17;0.45;;;0.38;;
65375;SDS011;51976;47.332;9.404;2022-09-16T08:18:44;1.05;;;0.52;;
65375;SDS011;51976;47.332;9.404;2022-09-16T08:21:12;0.75;;;0.43;;
65375;SDS011;51976;47.332;9.404;2022-09-16T08:23:39;1.33;;;0.50;;
65375;SDS011;51976;47.332;9.404;2022-09-16T08:26:06;1.95;;;0.60;;
65375;SDS011;51976;47.332;9.404;2022-09-16T08:28:34;0.82;;;0.50;;
65375;SDS011;51976;47.332;9.404;2022-09-16T08:31:02;0.70;;;0.30;;
65375;SDS011;51976;47.332;9.404;2022-09-16T08:33:27;1.95;;;0.50;;
65375;SDS011;51976;47.332;9.404;2022-09-16T08:36:00;0.70;;;0.40;;
65375;SDS011;51976;47.332;9.404;2022-09-16T08:38:28;1.20;;;0.55;;
65375;SDS011;51976;47.332;9.404;2022-09-16T08:40:57;1.13;;;0.55;;
65375;SDS011;51976;47.332;9.404;2022-09-16T08:43:35;0.98;;;0.50;;
65375;SDS011;51976;47.332;9.404;2022-09-16T08:46:11;0.65;;;0.38;;
65375;SDS011;51976;47.332;9.404;2022-09-16T08:48:51;1.20;;;0.45;;
65375;SDS011;51976;47.332;9.404;2022-09-16T08:51:24;1.25;;;0.50;;
65375;SDS011;51976;47.332;9.404;2022-09-16T08:53:56;1.10;;;0.45;;
65375;SDS011;51976;47.332;9.404;2022-09-16T08:56:26;0.82;;;0.40;;
65375;SDS011;51976;47.332;9.404;2022-09-16T08:58:54;0.60;;;0.35;;
65375;SDS011;51976;47.332;9.404;2022-09-16T09:01:40;0.98;;;0.50;;
65375;SDS011;51976;47.332;9.404;2022-09-16T09:04:12;0.90;;;0.50;;
65375;SDS011;51976;47.332;9.404;2022-09-16T09:06:55;0.70;;;0.57;;
65375;SDS011;51976;47.332;9.404;2022-09-16T09:09:40;1.20;;;0.70;;
65375;SDS011;51976;47.332;9.404;2022-09-16T09:12:24;0.70;;;0.40;;
65375;SDS011;51976;47.332;9.404;2022-09-16T09:15:13;0.82;;;0.60;;
65375;SDS011;51976;47.332;9.404;2022-09-16T09:17:58;1.08;;;0.57;;
65375;SDS011;51976;47.332;9.404;2022-09-16T09:20:55;1.27;;;0.70;;
65375;SDS011;51976;47.332;9.404;2022-09-16T09:23:42;0.50;;;0.40;;
65375;SDS011;51976;47.332;9.404;2022-09-16T09:26:20;0.90;;;0.50;;
65375;SDS011;51976;47.332;9.404;2022-09-16T09:28:54;0.65;;;0.35;;
65375;SDS011;51976;47.332;9.404;2022-09-16T09:31:38;0.60;;;0.40;;
65375;SDS011;51976;47.332;9.404;2022-09-16T09:34:35;1.25;;;0.57;;
65375;SDS011;51976;47.332;9.404;2022-09-16T09:37:23;1.10;;;0.50;;
65375;SDS011;51976;47.332;9.404;2022-09-16T09:40:03;1.02;;;0.70;;
65375;SDS011;51976;47.332;9.404;2022-09-16T09:42:47;0.80;;;0.45;;
65375;SDS011;51976;47.332;9.404;2022-09-16T09:45:23;0.80;;;0.40;;
65375;SDS011;51976;47.332;9.404;2022-09-16T09:47:57;1.13;;;0.60;;
65375;SDS011;51976;47.332;9.404;2022-09-16T09:50:28;1.80;;;0.60;;
65375;SDS011;51976;47.332;9.404;2022-09-16T09:53:11;1.15;;;0.73;;
65375;SDS011;51976;47.332;9.404;2022-09-16T09:55:49;0.65;;;0.50;;
65375;SDS011;51976;47.332;9.404;2022-09-16T09:58:32;1.80;;;0.70;;
65375;SDS011;51976;47.332;9.404;2022-09-16T10:01:03;0.98;;;0.65;;
65375;SDS011;51976;47.332;9.404;2022-09-16T10:03:29;1.83;;;1.00;;
65375;SDS011;51976;47.332;9.404;2022-09-16T10:05:55;1.17;;;0.77;;
65375;SDS011;51976;47.332;9.404;2022-09-16T10:08:25;1.25;;;0.60;;
65375;SDS011;51976;47.332;9.404;2022-09-16T10:10:57;0.70;;;0.50;;
65375;SDS011;51976;47.332;9.404;2022-09-16T10:13:25;0.88;;;0.63;;
65375;SDS011;51976;47.332;9.404;2022-09-16T10:16:04;1.15;;;0.47;;
65375;SDS011;51976;47.332;9.404;2022-09-16T10:18:34;0.60;;;0.40;;
65375;SDS011;51976;47.332;9.404;2022-09-16T10:21:04;0.93;;;0.60;;
65375;SDS011;51976;47.332;9.404;2022-09-16T10:23:31;0.80;;;0.50;;
65375;SDS011;51976;47.332;9.404;2022-09-16T10:26:21;0.65;;;0.47;;
65375;SDS011;51976;47.332;9.404;2022-09-16T10:29:00;1.58;;;0.60;;
65375;SDS011;51976;47.332;9.404;2022-09-16T10:31:30;1.20;;;0.80;;
65375;SDS011;51976;47.332;9.404;2022-09-16T10:33:59;1.13;;;0.60;;
65375;SDS011;51976;47.332;9.404;2022-09-16T10:36:27;2.30;;;0.93;;
65375;SDS011;51976;47.332;9.404;2022-09-16T10:38:56;1.33;;;0.65;;
65375;SDS011;51976;47.332;9.404;2022-09-16T10:41:27;0.95;;;0.60;;
65375;SDS011;51976;47.332;9.404;2022-09-16T10:44:01;1.75;;;0.90;;
65375;SDS011;51976;47.332;9.404;2022-09-16T10:46:31;1.48;;;0.68;;
65375;SDS011;51976;47.332;9.404;2022-09-16T10:49:01;1.10;;;0.60;;
65375;SDS011;51976;47.332;9.404;2022-09-16T10:51:34;1.08;;;0.52;;
65375;SDS011;51976;47.332;9.404;2022-09-16T10:54:00;1.02;;;0.70;;
65375;SDS011;51976;47.332;9.404;2022-09-16T10:56:30;2.45;;;0.73;;
65375;SDS011;51976;47.332;9.404;2022-09-16T10:59:02;1.13;;;0.60;;
65375;SDS011;51976;47.332;9.404;2022-09-16T11:02:04;1.50;;;0.60;;
65375;SDS011;51976;47.332;9.404;2022-09-16T11:04:49;0.95;;;0.60;;
65375;SDS011;51976;47.332;9.404;2022-09-16T11:07:46;0.68;;;0.45;;
65375;SDS011;51976;47.332;9.404;2022-09-16T11:10:31;0.90;;;0.40;;
65375;SDS011;51976;47.332;9.404;2022-09-16T11:16:19;0.98;;;0.40;;
65375;SDS011;51976;47.332;9.404;2022-09-16T11:18:56;1.63;;;0.43;;
65375;SDS011;51976;47.332;9.404;2022-09-16T11:21:41;0.90;;;0.55;;
65375;SDS011;51976;47.332;9.404;2022-09-16T11:24:31;0.93;;;0.50;;
65375;SDS011;51976;47.332;9.404;2022-09-16T11:27:20;1.17;;;0.70;;
65375;SDS011;51976;47.332;9.404;2022-09-16T11:30:38;0.85;;;0.63;;
65375;SDS011;51976;47.332;9.404;2022-09-16T11:32:53;0.75;;;0.50;;
65375;SDS011;51976;47.332;9.404;2022-09-16T11:36:06;1.10;;;0.77;;
65375;SDS011;51976;47.332;9.404;2022-09-16T11:38:53;1.95;;;0.63;;
65375;SDS011;51976;47.332;9.404;2022-09-16T11:45:00;1.55;;;0.68;;
65375;SDS011;51976;47.332;9.404;2022-09-16T11:47:38;1.75;;;0.60;;
65375;SDS011;51976;47.332;9.404;2022-09-16T11:50:17;2.30;;;0.80;;
65375;SDS011;51976;47.332;9.404;2022-09-16T11:53:00;0.98;;;0.73;;
65375;SDS011;51976;47.332;9.404;2022-09-16T11:55:45;1.45;;;0.70;;
65375;SDS011;51976;47.332;9.404;2022-09-16T11:58:30;1.50;;;0.80;;
65375;SDS011;51976;47.332;9.404;2022-09-16T12:01:05;2.67;;;0.95;;
65375;SDS011;51976;47.332;9.404;2022-09-16T12:04:01;4.80;;;1.02;;
65375;SDS011;51976;47.332;9.404;2022-09-16T12:06:35;2.45;;;0.70;;
65375;SDS011;51976;47.332;9.404;2022-09-16T12:09:13;3.50;;;1.02;;
65375;SDS011;51976;47.332;9.404;2022-09-16T12:11:44;1.40;;;0.80;;
65375;SDS011;51976;47.332;9.404;2022-09-16T12:14:17;4.93;;;0.77;;
65375;SDS011;51976;47.332;9.404;2022-09-16T12:16:55;6.07;;;1.00;;
65375;SDS011;51976;47.332;9.404;2022-09-16T12:19:27;1.63;;;0.80;;
65375;SDS011;51976;47.332;9.404;2022-09-16T12:22:00;1.42;;;0.80;;
65375;SDS011;51976;47.332;9.404;2022-09-16T12:24:39;6.70;;;1.00;;
65375;SDS011;51976;47.332;9.404;2022-09-16T12:30:18;4.45;;;0.90;;
65375;SDS011;51976;47.332;9.404;2022-09-16T12:32:58;3.33;;;0.90;;
65375;SDS011;51976;47.332;9.404;2022-09-16T12:35:54;2.60;;;0.70;;
65375;SDS011;51976;47.332;9.404;2022-09-16T12:38:23;2.45;;;0.85;;
65375;SDS011;51976;47.332;9.404;2022-09-16T12:41:04;2.08;;;0.95;;
65375;SDS011;51976;47.332;9.404;2022-09-16T12:44:05;2.38;;;0.90;;
65375;SDS011;51976;47.332;9.404;2022-09-16T12:47:06;2.45;;;0.77;;
65375;SDS011;51976;47.332;9.404;2022-09-16T12:49:51;1.85;;;0.80;;
65375;SDS011;51976;47.332;9.404;2022-09-16T12:55:58;2.13;;;0.80;;
65375;SDS011;51976;47.332;9.404;2022-09-16T12:58:47;1.85;;;0.90;;
65375;SDS011;51976;47.332;9.404;2022-09-16T13:01:27;0.95;;;0.80;;
65375;SDS011;51976;47.332;9.404;2022-09-16T13:04:07;1.90;;;0.82;;
65375;SDS011;51976;47.332;9.404;2022-09-16T13:06:53;3.03;;;1.02;;
65375;SDS011;51976;47.332;9.404;2022-09-16T13:09:26;2.75;;;0.85;;
65375;SDS011;51976;47.332;9.404;2022-09-16T13:11:56;1.90;;;0.80;;
65375;SDS011;51976;47.332;9.404;2022-09-16T13:14:29;4.13;;;1.00;;
65375;SDS011;51976;47.332;9.404;2022-09-16T13:16:59;1.27;;;0.77;;
65375;SDS011;51976;47.332;9.404;2022-09-16T13:19:33;0.90;;;0.60;;
65375;SDS011;51976;47.332;9.404;2022-09-16T13:22:12;2.10;;;0.88;;
65375;SDS011;51976;47.332;9.404;2022-09-16T13:24:47;2.22;;;0.85;;
65375;SDS011;51976;47.332;9.404;2022-09-16T13:27:32;1.73;;;0.90;;
65375;SDS011;51976;47.332;9.404;2022-09-16T13:30:11;1.23;;;0.80;;
65375;SDS011;51976;47.332;9.404;2022-09-16T13:32:41;1.38;;;0.88;;
65375;SDS011;51976;47.332;9.404;2022-09-16T13:35:23;1.63;;;0.80;;
65375;SDS011;51976;47.332;9.404;2022-09-16T13:38:09;5.65;;;0.90;;
65375;SDS011;51976;47.332;9.404;2022-09-16T13:40:55;2.67;;;0.70;;
65375;SDS011;51976;47.332;9.404;2022-09-16T13:43:29;1.42;;;0.77;;
65375;SDS011;51976;47.332;9.404;2022-09-16T13:46:01;1.20;;;0.70;;
65375;SDS011;51976;47.332;9.404;2022-09-16T13:48:32;1.13;;;0.80;;
65375;SDS011;51976;47.332;9.404;2022-09-16T13:51:01;2.17;;;0.82;;
65375;SDS011;51976;47.332;9.404;2022-09-16T13:53:36;2.10;;;0.75;;
65375;SDS011;51976;47.332;9.404;2022-09-16T13:56:19;4.07;;;1.17;;
65375;SDS011;51976;47.332;9.404;2022-09-16T13:59:16;2.17;;;1.13;;
65375;SDS011;51976;47.332;9.404;2022-09-16T14:02:11;2.28;;;0.90;;
65375;SDS011;51976;47.332;9.404;2022-09-16T14:04:57;2.15;;;0.70;;
65375;SDS011;51976;47.332;9.404;2022-09-16T14:07:50;1.40;;;1.00;;
65375;SDS011;51976;47.332;9.404;2022-09-16T14:13:20;1.60;;;0.60;;
65375;SDS011;51976;47.332;9.404;2022-09-16T14:15:51;1.75;;;1.08;;
65375;SDS011;51976;47.332;9.404;2022-09-16T14:18:21;2.78;;;0.82;;
65375;SDS011;51976;47.332;9.404;2022-09-16T14:20:58;0.80;;;0.60;;
65375;SDS011;51976;47.332;9.404;2022-09-16T14:25:52;1.20;;;0.80;;
65375;SDS011;51976;47.332;9.404;2022-09-16T14:28:18;1.55;;;0.75;;
65375;SDS011;51976;47.332;9.404;2022-09-16T14:30:57;2.33;;;0.93;;
65375;SDS011;51976;47.332;9.404;2022-09-16T14:33:28;2.17;;;0.80;;
65375;SDS011;51976;47.332;9.404;2022-09-16T14:35:58;1.73;;;0.70;;
65375;SDS011;51976;47.332;9.404;2022-09-16T14:38:28;1.45;;;1.08;;
65375;SDS011;51976;47.332;9.404;2022-09-16T14:40:59;1.88;;;0.85;;
65375;SDS011;51976;47.332;9.404;2022-09-16T14:43:25;2.13;;;0.80;;
65375;SDS011;51976;47.332;9.404;2022-09-16T14:45:51;0.93;;;0.70;;
65375;SDS011;51976;47.332;9.404;2022-09-16T14:48:21;1.38;;;0.70;;
65375;SDS011;51976;47.332;9.404;2022-09-16T14:50:52;2.20;;;1.02;;
65375;SDS011;51976;47.332;9.404;2022-09-16T14:53:25;1.65;;;0.93;;
65375;SDS011;51976;47.332;9.404;2022-09-16T14:58:19;2.17;;;0.80;;
65375;SDS011;51976;47.332;9.404;2022-09-16T15:00:47;0.93;;;0.50;;
65375;SDS011;51976;47.332;9.404;2022-09-16T15:03:23;1.95;;;0.68;;
65375;SDS011;51976;47.332;9.404;2022-09-16T15:05:55;1.05;;;0.60;;
65375;SDS011;51976;47.332;9.404;2022-09-16T15:08:26;2.38;;;0.70;;
65375;SDS011;51976;47.332;9.404;2022-09-16T15:11:09;1.60;;;0.73;;
65375;SDS011;51976;47.332;9.404;2022-09-16T15:13:37;2.38;;;0.68;;
65375;SDS011;51976;47.332;9.404;2022-09-16T15:16:08;1.65;;;0.70;;
65375;SDS011;51976;47.332;9.404;2022-09-16T15:18:37;1.38;;;0.70;;
65375;SDS011;51976;47.332;9.404;2022-09-16T15:21:10;1.20;;;0.80;;
65375;SDS011;51976;47.332;9.404;2022-09-16T15:23:44;1.77;;;0.85;;
65375;SDS011;51976;47.332;9.404;2022-09-16T15:26:14;1.40;;;0.60;;
65375;SDS011;51976;47.332;9.404;2022-09-16T15:28:54;2.08;;;0.90;;
65375;SDS011;51976;47.332;9.404;2022-09-16T15:31:25;2.20;;;0.80;;
65375;SDS011;51976;47.332;9.404;2022-09-16T15:33:53;1.80;;;0.90;;
65375;SDS011;51976;47.332;9.404;2022-09-16T15:36:30;2.53;;;0.95;;
65375;SDS011;51976;47.332;9.404;2022-09-16T15:39:01;2.17;;;0.90;;
65375;SDS011;51976;47.332;9.404;2022-09-16T15:41:27;2.13;;;0.73;;
65375;SDS011;51976;47.332;9.404;2022-09-16T15:43:54;0.70;;;0.60;;
65375;SDS011;51976;47.332;9.404;2022-09-16T15:46:21;2.15;;;0.70;;
65375;SDS011;51976;47.332;9.404;2022-09-16T15:48:49;2.28;;;0.77;;
65375;SDS011;51976;47.332;9.404;2022-09-16T15:51:26;0.90;;;0.57;;
65375;SDS011;51976;47.332;9.404;2022-09-16T15:54:14;1.13;;;0.70;;
65375;SDS011;51976;47.332;9.404;2022-09-16T15:59:19;1.17;;;0.73;;
65375;SDS011;51976;47.332;9.404;2022-09-16T16:01:51;1.10;;;0.57;;